sensor_id;sensor_type;location;lat;lon;timestamp;temperature;humidity
48162;DHT22;33950;48.154;16.316;2022-11-18T00:00:23;9.40;99.20
48162;DHT22;33950;48.154;16.316;2022-11-18T00:03:09;9.50;99.10
48162;DHT22;33950;48.154;16.316;2022-11-18T00:05:56;9.60;99.10
48162;DHT22;33950;48.154;16.316;2022-11-18T00:08:43;9.60;98.90
48162;DHT22;33950;48.154;16.316;2022-11-18T00:11:29;9.50;98.90
48162;DHT22;33950;48.154;16.316;2022-11-18T00:14:34;9.50;99.00
48162;DHT22;33950;48.154;16.316;2022-11-18T00:17:20;9.50;99.00
48162;DHT22;33950;48.154;16.316;2022-11-18T00:20:07;9.60;99.10
48162;DHT22;33950;48.154;16.316;2022-11-18T00:22:53;9.40;99.00
48162;DHT22;33950;48.154;16.316;2022-11-18T00:25:40;9.40;99.00
48162;DHT22;33950;48.154;16.316;2022-11-18T00:28:27;9.40;98.90
48162;DHT22;33950;48.154;16.316;2022-11-18T00:31:13;10.10;99.10
48162;DHT22;33950;48.154;16.316;2022-11-18T00:33:59;9.50;98.90
48162;DHT22;33950;48.154;16.316;2022-11-18T00:36:46;9.50;98.90
48162;DHT22;33950;48.154;16.316;2022-11-18T00:39:33;9.50;98.90
48162;DHT22;33950;48.154;16.316;2022-11-18T00:42:20;9.40;99.10
48162;DHT22;33950;48.154;16.316;2022-11-18T00:47:59;9.20;99.40
48162;DHT22;33950;48.154;16.316;2022-11-18T00:50:48;9.20;99.30
48162;DHT22;33950;48.154;16.316;2022-11-18T00:53:35;9.40;99.40
48162;DHT22;33950;48.154;16.316;2022-11-18T00:56:21;9.50;99.20
48162;DHT22;33950;48.154;16.316;2022-11-18T00:59:08;9.40;99.10
48162;DHT22;33950;48.154;16.316;2022-11-18T01:01:54;9.40;99.50
48162;DHT22;33950;48.154;16.316;2022-11-18T01:04:40;9.40;99.30
48162;DHT22;33950;48.154;16.316;2022-11-18T01:07:26;9.40;99.30
48162;DHT22;33950;48.154;16.316;2022-11-18T01:10:13;9.30;99.40
48162;DHT22;33950;48.154;16.316;2022-11-18T01:12:59;9.30;99.40
48162;DHT22;33950;48.154;16.316;2022-11-18T01:16:05;9.30;99.60
48162;DHT22;33950;48.154;16.316;2022-11-18T01:18:51;9.30;99.60
48162;DHT22;33950;48.154;16.316;2022-11-18T01:21:38;9.30;99.50
48162;DHT22;33950;48.154;16.316;2022-11-18T01:24:24;9.30;99.60
48162;DHT22;33950;48.154;16.316;2022-11-18T01:27:10;9.40;99.80
48162;DHT22;33950;48.154;16.316;2022-11-18T01:29:56;9.50;99.60
48162;DHT22;33950;48.154;16.316;2022-11-18T01:32:43;9.50;99.50
48162;DHT22;33950;48.154;16.316;2022-11-18T01:35:33;9.50;99.50
48162;DHT22;33950;48.154;16.316;2022-11-18T01:38:19;9.40;99.60
48162;DHT22;33950;48.154;16.316;2022-11-18T01:41:05;9.40;99.60
48162;DHT22;33950;48.154;16.316;2022-11-18T01:43:53;9.30;99.70
48162;DHT22;33950;48.154;16.316;2022-11-18T01:46:39;9.30;99.90
48162;DHT22;33950;48.154;16.316;2022-11-18T01:49:27;9.30;99.90
48162;DHT22;33950;48.154;16.316;2022-11-18T01:52:13;9.40;99.90
48162;DHT22;33950;48.154;16.316;2022-11-18T01:55:05;9.50;99.90
48162;DHT22;33950;48.154;16.316;2022-11-18T01:57:52;9.70;99.90
48162;DHT22;33950;48.154;16.316;2022-11-18T02:00:41;9.70;99.90
48162;DHT22;33950;48.154;16.316;2022-11-18T02:03:28;9.60;99.90
48162;DHT22;33950;48.154;16.316;2022-11-18T02:06:15;9.60;99.90
48162;DHT22;33950;48.154;16.316;2022-11-18T02:09:02;9.60;99.90
48162;DHT22;33950;48.154;16.316;2022-11-18T02:11:48;9.50;99.90
48162;DHT22;33950;48.154;16.316;2022-11-18T02:14:43;9.30;99.90
48162;DHT22;33950;48.154;16.316;2022-11-18T02:17:39;9.10;99.90
48162;DHT22;33950;48.154;16.316;2022-11-18T02:20:33;9.20;99.90
48162;DHT22;33950;48.154;16.316;2022-11-18T02:23:48;9.10;99.90
48162;DHT22;33950;48.154;16.316;2022-11-18T02:27:05;9.20;99.90
48162;DHT22;33950;48.154;16.316;2022-11-18T02:30:02;9.30;99.90
48162;DHT22;33950;48.154;16.316;2022-11-18T02:32:53;9.40;99.90
48162;DHT22;33950;48.154;16.316;2022-11-18T02:35:43;9.40;99.90
48162;DHT22;33950;48.154;16.316;2022-11-18T02:38:35;9.30;99.90
48162;DHT22;33950;48.154;16.316;2022-11-18T02:41:25;9.20;99.90
48162;DHT22;33950;48.154;16.316;2022-11-18T02:44:14;9.10;99.90
48162;DHT22;33950;48.154;16.316;2022-11-18T02:47:05;9.10;99.90
48162;DHT22;33950;48.154;16.316;2022-11-18T02:49:55;9.20;99.90
48162;DHT22;33950;48.154;16.316;2022-11-18T02:52:44;9.20;99.90
48162;DHT22;33950;48.154;16.316;2022-11-18T02:55:33;9.10;99.90
48162;DHT22;33950;48.154;16.316;2022-11-18T02:58:21;9.10;99.90
48162;DHT22;33950;48.154;16.316;2022-11-18T03:01:15;9.10;99.90
48162;DHT22;33950;48.154;16.316;2022-11-18T03:04:04;9.10;99.90
48162;DHT22;33950;48.154;16.316;2022-11-18T03:06:59;9.10;99.90
48162;DHT22;33950;48.154;16.316;2022-11-18T03:09:49;9.20;99.90
48162;DHT22;33950;48.154;16.316;2022-11-18T03:12:41;9.00;99.90
48162;DHT22;33950;48.154;16.316;2022-11-18T03:15:33;9.10;99.90
48162;DHT22;33950;48.154;16.316;2022-11-18T03:18:25;9.20;99.90
48162;DHT22;33950;48.154;16.316;2022-11-18T03:21:17;9.20;99.90
48162;DHT22;33950;48.154;16.316;2022-11-18T03:24:08;9.20;99.90
48162;DHT22;33950;48.154;16.316;2022-11-18T03:27:03;9.10;99.90
48162;DHT22;33950;48.154;16.316;2022-11-18T03:29:57;9.10;99.90
48162;DHT22;33950;48.154;16.316;2022-11-18T03:32:49;9.10;99.90
48162;DHT22;33950;48.154;16.316;2022-11-18T03:35:39;9.20;99.90
48162;DHT22;33950;48.154;16.316;2022-11-18T03:38:29;9.30;99.90
48162;DHT22;33950;48.154;16.316;2022-11-18T03:41:18;9.40;99.90
48162;DHT22;33950;48.154;16.316;2022-11-18T03:44:11;9.40;99.90
48162;DHT22;33950;48.154;16.316;2022-11-18T03:47:03;9.30;99.90
48162;DHT22;33950;48.154;16.316;2022-11-18T03:49:55;9.30;99.90
48162;DHT22;33950;48.154;16.316;2022-11-18T03:52:42;9.30;99.90
48162;DHT22;33950;48.154;16.316;2022-11-18T03:55:35;9.40;99.90
48162;DHT22;33950;48.154;16.316;2022-11-18T03:58:26;9.50;99.90
48162;DHT22;33950;48.154;16.316;2022-11-18T04:01:17;9.50;99.90
48162;DHT22;33950;48.154;16.316;2022-11-18T04:04:04;9.50;99.90
48162;DHT22;33950;48.154;16.316;2022-11-18T04:06:58;9.50;99.90
48162;DHT22;33950;48.154;16.316;2022-11-18T04:09:50;9.40;99.90
48162;DHT22;33950;48.154;16.316;2022-11-18T04:12:43;9.40;99.90
48162;DHT22;33950;48.154;16.316;2022-11-18T04:15:31;9.30;99.90
48162;DHT22;33950;48.154;16.316;2022-11-18T04:18:17;9.30;99.90
48162;DHT22;33950;48.154;16.316;2022-11-18T04:21:04;9.20;99.90
48162;DHT22;33950;48.154;16.316;2022-11-18T04:23:50;9.20;99.90
48162;DHT22;33950;48.154;16.316;2022-11-18T04:26:36;9.20;99.90
48162;DHT22;33950;48.154;16.316;2022-11-18T04:29:23;9.20;99.90
48162;DHT22;33950;48.154;16.316;2022-11-18T04:32:10;9.30;99.90
48162;DHT22;33950;48.154;16.316;2022-11-18T04:34:56;9.30;99.90
48162;DHT22;33950;48.154;16.316;2022-11-18T04:37:42;9.30;99.90
48162;DHT22;33950;48.154;16.316;2022-11-18T04:40:28;9.30;99.90
48162;DHT22;33950;48.154;16.316;2022-11-18T04:43:14;9.30;99.90
48162;DHT22;33950;48.154;16.316;2022-11-18T04:46:01;9.40;99.90
48162;DHT22;33950;48.154;16.316;2022-11-18T04:48:47;9.40;99.90
48162;DHT22;33950;48.154;16.316;2022-11-18T04:51:33;9.40;99.90
48162;DHT22;33950;48.154;16.316;2022-11-18T04:54:20;9.50;99.90
48162;DHT22;33950;48.154;16.316;2022-11-18T04:57:06;9.40;99.90
48162;DHT22;33950;48.154;16.316;2022-11-18T04:59:52;9.40;99.90
48162;DHT22;33950;48.154;16.316;2022-11-18T05:02:39;9.40;99.90
48162;DHT22;33950;48.154;16.316;2022-11-18T05:05:25;9.40;99.90
48162;DHT22;33950;48.154;16.316;2022-11-18T05:08:11;9.50;99.90
48162;DHT22;33950;48.154;16.316;2022-11-18T05:10:57;9.50;99.90
48162;DHT22;33950;48.154;16.316;2022-11-18T05:14:03;9.40;99.90
48162;DHT22;33950;48.154;16.316;2022-11-18T05:16:49;9.30;99.90
48162;DHT22;33950;48.154;16.316;2022-11-18T05:19:37;9.30;99.90
48162;DHT22;33950;48.154;16.316;2022-11-18T05:22:26;9.20;99.90
48162;DHT22;33950;48.154;16.316;2022-11-18T05:25:12;8.60;99.90
48162;DHT22;33950;48.154;16.316;2022-11-18T05:27:58;9.30;99.90
48162;DHT22;33950;48.154;16.316;2022-11-18T05:30:44;9.20;99.90
48162;DHT22;33950;48.154;16.316;2022-11-18T05:33:30;9.20;99.90
48162;DHT22;33950;48.154;16.316;2022-11-18T05:36:19;9.20;99.90
48162;DHT22;33950;48.154;16.316;2022-11-18T05:39:06;9.30;99.90
48162;DHT22;33950;48.154;16.316;2022-11-18T05:41:52;9.00;99.90
48162;DHT22;33950;48.154;16.316;2022-11-18T05:44:56;8.90;99.90
48162;DHT22;33950;48.154;16.316;2022-11-18T05:47:42;9.00;99.90
48162;DHT22;33950;48.154;16.316;2022-11-18T05:50:50;9.00;99.90
48162;DHT22;33950;48.154;16.316;2022-11-18T05:53:38;9.00;99.90
48162;DHT22;33950;48.154;16.316;2022-11-18T05:56:27;9.00;99.90
48162;DHT22;33950;48.154;16.316;2022-11-18T05:59:14;9.00;99.90
48162;DHT22;33950;48.154;16.316;2022-11-18T06:02:02;9.00;99.90
48162;DHT22;33950;48.154;16.316;2022-11-18T06:04:53;8.90;99.90
48162;DHT22;33950;48.154;16.316;2022-11-18T06:07:43;8.90;99.90
48162;DHT22;33950;48.154;16.316;2022-11-18T06:10:34;8.90;99.90
48162;DHT22;33950;48.154;16.316;2022-11-18T06:13:24;8.80;99.90
48162;DHT22;33950;48.154;16.316;2022-11-18T06:16:11;8.80;99.90
48162;DHT22;33950;48.154;16.316;2022-11-18T06:18:58;8.70;99.90
48162;DHT22;33950;48.154;16.316;2022-11-18T06:21:46;8.70;99.90
48162;DHT22;33950;48.154;16.316;2022-11-18T06:24:33;8.60;99.90
48162;DHT22;33950;48.154;16.316;2022-11-18T06:27:21;8.60;99.90
48162;DHT22;33950;48.154;16.316;2022-11-18T06:30:08;8.50;99.90
48162;DHT22;33950;48.154;16.316;2022-11-18T06:32:54;8.50;99.90
48162;DHT22;33950;48.154;16.316;2022-11-18T06:35:41;8.60;99.90
48162;DHT22;33950;48.154;16.316;2022-11-18T06:38:27;8.60;99.90
48162;DHT22;33950;48.154;16.316;2022-11-18T06:41:13;8.60;99.90
48162;DHT22;33950;48.154;16.316;2022-11-18T06:44:00;8.50;99.90
48162;DHT22;33950;48.154;16.316;2022-11-18T06:46:46;8.60;99.90
48162;DHT22;33950;48.154;16.316;2022-11-18T06:49:46;8.70;99.90
48162;DHT22;33950;48.154;16.316;2022-11-18T06:52:32;8.80;99.90
48162;DHT22;33950;48.154;16.316;2022-11-18T06:55:18;8.90;99.90
48162;DHT22;33950;48.154;16.316;2022-11-18T06:58:04;8.90;99.90
48162;DHT22;33950;48.154;16.316;2022-11-18T07:00:52;9.00;99.90
48162;DHT22;33950;48.154;16.316;2022-11-18T07:03:38;9.10;99.90
48162;DHT22;33950;48.154;16.316;2022-11-18T07:06:26;9.10;99.90
48162;DHT22;33950;48.154;16.316;2022-11-18T07:09:12;9.10;99.90
48162;DHT22;33950;48.154;16.316;2022-11-18T07:11:58;9.10;99.90
48162;DHT22;33950;48.154;16.316;2022-11-18T07:14:45;9.00;99.90
48162;DHT22;33950;48.154;16.316;2022-11-18T07:17:32;8.90;99.90
48162;DHT22;33950;48.154;16.316;2022-11-18T07:20:21;8.90;99.90
48162;DHT22;33950;48.154;16.316;2022-11-18T07:23:07;9.00;99.90
48162;DHT22;33950;48.154;16.316;2022-11-18T07:25:54;9.10;99.90
48162;DHT22;33950;48.154;16.316;2022-11-18T07:28:42;9.20;99.90
48162;DHT22;33950;48.154;16.316;2022-11-18T07:31:29;9.20;99.90
48162;DHT22;33950;48.154;16.316;2022-11-18T07:34:16;9.30;99.90
48162;DHT22;33950;48.154;16.316;2022-11-18T07:37:02;9.30;99.90
48162;DHT22;33950;48.154;16.316;2022-11-18T07:39:48;9.30;99.90
48162;DHT22;33950;48.154;16.316;2022-11-18T07:42:34;9.30;99.90
48162;DHT22;33950;48.154;16.316;2022-11-18T07:45:31;9.30;99.90
48162;DHT22;33950;48.154;16.316;2022-11-18T07:48:17;9.30;99.90
48162;DHT22;33950;48.154;16.316;2022-11-18T07:51:04;9.30;99.90
48162;DHT22;33950;48.154;16.316;2022-11-18T07:53:51;9.40;99.90
48162;DHT22;33950;48.154;16.316;2022-11-18T07:56:38;9.40;99.90
48162;DHT22;33950;48.154;16.316;2022-11-18T07:59:24;9.40;99.90
48162;DHT22;33950;48.154;16.316;2022-11-18T08:02:10;9.40;99.90
48162;DHT22;33950;48.154;16.316;2022-11-18T08:04:56;9.50;99.90
48162;DHT22;33950;48.154;16.316;2022-11-18T08:07:44;9.50;99.90
48162;DHT22;33950;48.154;16.316;2022-11-18T08:10:30;9.40;99.90
48162;DHT22;33950;48.154;16.316;2022-11-18T08:13:16;9.50;99.90
48162;DHT22;33950;48.154;16.316;2022-11-18T08:16:04;9.50;99.90
48162;DHT22;33950;48.154;16.316;2022-11-18T08:18:51;9.50;99.90
48162;DHT22;33950;48.154;16.316;2022-11-18T08:21:37;9.60;99.90
48162;DHT22;33950;48.154;16.316;2022-11-18T08:24:25;9.60;99.90
48162;DHT22;33950;48.154;16.316;2022-11-18T08:27:11;9.50;99.90
48162;DHT22;33950;48.154;16.316;2022-11-18T08:29:57;9.40;99.90
48162;DHT22;33950;48.154;16.316;2022-11-18T08:32:43;9.20;99.90
48162;DHT22;33950;48.154;16.316;2022-11-18T08:35:30;9.20;99.90
48162;DHT22;33950;48.154;16.316;2022-11-18T08:38:16;9.10;99.90
48162;DHT22;33950;48.154;16.316;2022-11-18T08:41:04;9.00;99.90
48162;DHT22;33950;48.154;16.316;2022-11-18T08:43:52;9.10;99.90
48162;DHT22;33950;48.154;16.316;2022-11-18T08:46:38;9.20;99.90
48162;DHT22;33950;48.154;16.316;2022-11-18T08:49:24;9.20;99.90
48162;DHT22;33950;48.154;16.316;2022-11-18T08:52:10;9.20;99.90
48162;DHT22;33950;48.154;16.316;2022-11-18T08:54:56;9.30;99.90
48162;DHT22;33950;48.154;16.316;2022-11-18T08:57:44;9.30;99.90
48162;DHT22;33950;48.154;16.316;2022-11-18T09:00:30;9.30;99.90
48162;DHT22;33950;48.154;16.316;2022-11-18T09:03:16;9.30;99.90
48162;DHT22;33950;48.154;16.316;2022-11-18T09:06:06;9.40;99.90
48162;DHT22;33950;48.154;16.316;2022-11-18T09:08:53;9.40;99.90
48162;DHT22;33950;48.154;16.316;2022-11-18T09:11:39;9.40;99.90
48162;DHT22;33950;48.154;16.316;2022-11-18T09:14:26;9.40;99.90
48162;DHT22;33950;48.154;16.316;2022-11-18T09:17:13;9.30;99.90
48162;DHT22;33950;48.154;16.316;2022-11-18T09:20:00;9.30;99.90
48162;DHT22;33950;48.154;16.316;2022-11-18T09:22:46;9.30;99.90
48162;DHT22;33950;48.154;16.316;2022-11-18T09:25:32;9.30;99.90
48162;DHT22;33950;48.154;16.316;2022-11-18T09:28:18;9.30;99.90
48162;DHT22;33950;48.154;16.316;2022-11-18T09:31:07;9.30;99.90
48162;DHT22;33950;48.154;16.316;2022-11-18T09:33:53;9.30;99.90
48162;DHT22;33950;48.154;16.316;2022-11-18T09:36:39;9.30;99.90
48162;DHT22;33950;48.154;16.316;2022-11-18T09:39:25;9.30;99.90
48162;DHT22;33950;48.154;16.316;2022-11-18T09:42:23;9.40;99.90
48162;DHT22;33950;48.154;16.316;2022-11-18T09:45:20;9.50;99.90
48162;DHT22;33950;48.154;16.316;2022-11-18T09:48:14;9.50;99.90
48162;DHT22;33950;48.154;16.316;2022-11-18T09:51:01;9.50;99.90
48162;DHT22;33950;48.154;16.316;2022-11-18T09:53:49;9.60;99.90
48162;DHT22;33950;48.154;16.316;2022-11-18T09:56:35;9.50;99.90
48162;DHT22;33950;48.154;16.316;2022-11-18T09:59:24;9.50;99.90
48162;DHT22;33950;48.154;16.316;2022-11-18T10:02:34;9.40;99.90
48162;DHT22;33950;48.154;16.316;2022-11-18T10:05:25;8.90;99.90
48162;DHT22;33950;48.154;16.316;2022-11-18T10:08:19;9.60;99.90
48162;DHT22;33950;48.154;16.316;2022-11-18T10:14:03;9.30;99.90
48162;DHT22;33950;48.154;16.316;2022-11-18T10:22:43;9.30;99.90
48162;DHT22;33950;48.154;16.316;2022-11-18T10:31:08;9.40;99.90
48162;DHT22;33950;48.154;16.316;2022-11-18T10:33:58;9.60;99.90
48162;DHT22;33950;48.154;16.316;2022-11-18T10:36:58;9.60;99.90
48162;DHT22;33950;48.154;16.316;2022-11-18T10:39:50;9.60;99.90
48162;DHT22;33950;48.154;16.316;2022-11-18T10:42:40;9.50;99.90
48162;DHT22;33950;48.154;16.316;2022-11-18T10:45:28;9.50;99.90
48162;DHT22;33950;48.154;16.316;2022-11-18T10:48:16;9.30;99.90
48162;DHT22;33950;48.154;16.316;2022-11-18T10:51:20;9.20;99.90
48162;DHT22;33950;48.154;16.316;2022-11-18T10:54:08;9.10;99.90
48162;DHT22;33950;48.154;16.316;2022-11-18T10:57:00;9.20;99.90
48162;DHT22;33950;48.154;16.316;2022-11-18T10:59:50;9.20;99.90
48162;DHT22;33950;48.154;16.316;2022-11-18T11:02:39;9.20;99.90
48162;DHT22;33950;48.154;16.316;2022-11-18T11:05:26;9.30;99.90
48162;DHT22;33950;48.154;16.316;2022-11-18T11:08:18;9.30;99.90
48162;DHT22;33950;48.154;16.316;2022-11-18T11:11:08;9.40;99.90
48162;DHT22;33950;48.154;16.316;2022-11-18T11:14:14;9.30;99.90
48162;DHT22;33950;48.154;16.316;2022-11-18T11:17:05;9.50;99.90
48162;DHT22;33950;48.154;16.316;2022-11-18T11:20:02;9.40;99.90
48162;DHT22;33950;48.154;16.316;2022-11-18T11:22:49;9.40;99.90
48162;DHT22;33950;48.154;16.316;2022-11-18T11:25:42;9.50;99.90
48162;DHT22;33950;48.154;16.316;2022-11-18T11:28:30;9.50;99.90
48162;DHT22;33950;48.154;16.316;2022-11-18T11:31:24;9.50;99.90
48162;DHT22;33950;48.154;16.316;2022-11-18T11:34:19;9.60;99.90
48162;DHT22;33950;48.154;16.316;2022-11-18T11:37:16;9.60;99.90
48162;DHT22;33950;48.154;16.316;2022-11-18T11:40:22;9.60;99.90
48162;DHT22;33950;48.154;16.316;2022-11-18T11:43:23;9.60;99.90
48162;DHT22;33950;48.154;16.316;2022-11-18T11:46:29;9.60;99.90
48162;DHT22;33950;48.154;16.316;2022-11-18T11:49:20;9.60;99.90
48162;DHT22;33950;48.154;16.316;2022-11-18T11:52:12;9.50;99.90
48162;DHT22;33950;48.154;16.316;2022-11-18T11:55:12;9.50;99.90
48162;DHT22;33950;48.154;16.316;2022-11-18T11:58:12;9.40;99.90
48162;DHT22;33950;48.154;16.316;2022-11-18T12:01:07;9.40;99.90
48162;DHT22;33950;48.154;16.316;2022-11-18T12:04:04;9.40;99.90
48162;DHT22;33950;48.154;16.316;2022-11-18T12:06:54;9.30;99.90
48162;DHT22;33950;48.154;16.316;2022-11-18T12:09:56;9.40;99.90
48162;DHT22;33950;48.154;16.316;2022-11-18T12:12:52;9.50;99.90
48162;DHT22;33950;48.154;16.316;2022-11-18T12:15:47;9.60;99.90
48162;DHT22;33950;48.154;16.316;2022-11-18T12:18:39;9.60;99.90
48162;DHT22;33950;48.154;16.316;2022-11-18T12:21:55;9.50;99.90
48162;DHT22;33950;48.154;16.316;2022-11-18T12:24:43;9.60;99.90
48162;DHT22;33950;48.154;16.316;2022-11-18T12:27:59;9.60;99.90
48162;DHT22;33950;48.154;16.316;2022-11-18T12:30:45;9.60;99.90
48162;DHT22;33950;48.154;16.316;2022-11-18T12:33:31;9.70;99.90
48162;DHT22;33950;48.154;16.316;2022-11-18T12:36:24;9.70;99.90
48162;DHT22;33950;48.154;16.316;2022-11-18T12:42:38;9.60;99.90
48162;DHT22;33950;48.154;16.316;2022-11-18T12:45:54;9.60;99.90
48162;DHT22;33950;48.154;16.316;2022-11-18T12:48:46;9.70;99.90
48162;DHT22;33950;48.154;16.316;2022-11-18T12:51:41;9.80;99.90
48162;DHT22;33950;48.154;16.316;2022-11-18T12:54:34;9.90;99.90
48162;DHT22;33950;48.154;16.316;2022-11-18T12:57:22;10.00;99.90
48162;DHT22;33950;48.154;16.316;2022-11-18T13:00:27;10.20;99.90
48162;DHT22;33950;48.154;16.316;2022-11-18T13:03:20;10.10;99.90
48162;DHT22;33950;48.154;16.316;2022-11-18T13:06:16;10.20;99.90
48162;DHT22;33950;48.154;16.316;2022-11-18T13:09:13;10.30;99.90
48162;DHT22;33950;48.154;16.316;2022-11-18T13:12:03;10.30;99.90
48162;DHT22;33950;48.154;16.316;2022-11-18T13:14:50;10.40;99.90
48162;DHT22;33950;48.154;16.316;2022-11-18T13:18:06;10.50;99.90
48162;DHT22;33950;48.154;16.316;2022-11-18T13:20:54;10.50;99.90
48162;DHT22;33950;48.154;16.316;2022-11-18T13:23:41;10.50;99.90
48162;DHT22;33950;48.154;16.316;2022-11-18T13:26:39;10.50;99.90
48162;DHT22;33950;48.154;16.316;2022-11-18T13:29:34;10.60;99.90
48162;DHT22;33950;48.154;16.316;2022-11-18T13:32:25;10.60;99.90
48162;DHT22;33950;48.154;16.316;2022-11-18T13:35:15;10.50;99.90
48162;DHT22;33950;48.154;16.316;2022-11-18T13:38:02;10.40;99.90
48162;DHT22;33950;48.154;16.316;2022-11-18T13:40:49;10.40;99.90
48162;DHT22;33950;48.154;16.316;2022-11-18T13:43:52;10.30;99.90
48162;DHT22;33950;48.154;16.316;2022-11-18T13:46:40;10.20;99.90
48162;DHT22;33950;48.154;16.316;2022-11-18T13:49:38;10.20;99.90
48162;DHT22;33950;48.154;16.316;2022-11-18T13:52:29;10.10;99.90
48162;DHT22;33950;48.154;16.316;2022-11-18T13:55:20;10.00;99.90
48162;DHT22;33950;48.154;16.316;2022-11-18T13:58:25;10.00;99.90
48162;DHT22;33950;48.154;16.316;2022-11-18T14:01:17;9.90;99.90
48162;DHT22;33950;48.154;16.316;2022-11-18T14:04:05;9.80;99.90
48162;DHT22;33950;48.154;16.316;2022-11-18T14:06:52;9.70;99.90
48162;DHT22;33950;48.154;16.316;2022-11-18T14:09:51;9.70;99.90
48162;DHT22;33950;48.154;16.316;2022-11-18T14:12:37;9.60;99.90
48162;DHT22;33950;48.154;16.316;2022-11-18T14:15:33;9.50;99.90
48162;DHT22;33950;48.154;16.316;2022-11-18T14:18:27;9.50;99.90
48162;DHT22;33950;48.154;16.316;2022-11-18T14:21:25;9.40;99.90
48162;DHT22;33950;48.154;16.316;2022-11-18T14:24:13;9.30;99.90
48162;DHT22;33950;48.154;16.316;2022-11-18T14:27:27;9.20;99.90
48162;DHT22;33950;48.154;16.316;2022-11-18T14:30:33;9.10;99.90
48162;DHT22;33950;48.154;16.316;2022-11-18T14:33:20;9.10;99.90
48162;DHT22;33950;48.154;16.316;2022-11-18T14:36:10;9.10;99.90
48162;DHT22;33950;48.154;16.316;2022-11-18T14:38:56;8.90;99.90
48162;DHT22;33950;48.154;16.316;2022-11-18T14:41:42;8.60;99.90
48162;DHT22;33950;48.154;16.316;2022-11-18T14:44:33;8.50;99.90
48162;DHT22;33950;48.154;16.316;2022-11-18T14:47:22;8.40;99.90
48162;DHT22;33950;48.154;16.316;2022-11-18T14:50:11;8.10;99.90
48162;DHT22;33950;48.154;16.316;2022-11-18T14:52:58;8.10;99.90
48162;DHT22;33950;48.154;16.316;2022-11-18T14:55:46;8.10;99.90
48162;DHT22;33950;48.154;16.316;2022-11-18T14:58:33;8.10;99.90
48162;DHT22;33950;48.154;16.316;2022-11-18T15:01:21;8.10;99.90
48162;DHT22;33950;48.154;16.316;2022-11-18T15:04:09;8.10;99.90
48162;DHT22;33950;48.154;16.316;2022-11-18T15:06:56;8.00;99.90
48162;DHT22;33950;48.154;16.316;2022-11-18T15:09:42;7.90;99.90
48162;DHT22;33950;48.154;16.316;2022-11-18T15:12:28;7.90;99.90
48162;DHT22;33950;48.154;16.316;2022-11-18T15:15:14;7.90;99.90
48162;DHT22;33950;48.154;16.316;2022-11-18T15:18:02;7.90;99.90
48162;DHT22;33950;48.154;16.316;2022-11-18T15:20:48;7.90;99.90
48162;DHT22;33950;48.154;16.316;2022-11-18T15:23:34;7.90;99.90
48162;DHT22;33950;48.154;16.316;2022-11-18T15:26:21;8.00;99.90
48162;DHT22;33950;48.154;16.316;2022-11-18T15:29:14;8.00;99.90
48162;DHT22;33950;48.154;16.316;2022-11-18T15:32:00;8.00;99.90
48162;DHT22;33950;48.154;16.316;2022-11-18T15:34:51;8.10;99.90
48162;DHT22;33950;48.154;16.316;2022-11-18T15:37:37;8.20;99.90
48162;DHT22;33950;48.154;16.316;2022-11-18T15:40:23;8.20;99.90
48162;DHT22;33950;48.154;16.316;2022-11-18T15:43:09;8.20;99.90
48162;DHT22;33950;48.154;16.316;2022-11-18T15:45:56;8.20;99.90
48162;DHT22;33950;48.154;16.316;2022-11-18T15:48:42;8.10;99.90
48162;DHT22;33950;48.154;16.316;2022-11-18T15:51:30;7.90;99.90
48162;DHT22;33950;48.154;16.316;2022-11-18T15:54:18;7.90;99.90
48162;DHT22;33950;48.154;16.316;2022-11-18T15:57:04;7.90;99.90
48162;DHT22;33950;48.154;16.316;2022-11-18T15:59:50;7.80;99.90
48162;DHT22;33950;48.154;16.316;2022-11-18T16:02:36;7.70;99.90
48162;DHT22;33950;48.154;16.316;2022-11-18T16:05:22;7.70;99.90
48162;DHT22;33950;48.154;16.316;2022-11-18T16:08:10;7.70;99.90
48162;DHT22;33950;48.154;16.316;2022-11-18T16:10:56;7.60;99.90
48162;DHT22;33950;48.154;16.316;2022-11-18T16:14:02;7.60;99.90
48162;DHT22;33950;48.154;16.316;2022-11-18T16:16:49;7.50;99.90
48162;DHT22;33950;48.154;16.316;2022-11-18T16:19:36;7.40;99.90
48162;DHT22;33950;48.154;16.316;2022-11-18T16:22:22;7.30;99.90
48162;DHT22;33950;48.154;16.316;2022-11-18T16:25:09;7.10;99.90
48162;DHT22;33950;48.154;16.316;2022-11-18T16:27:56;7.00;99.90
48162;DHT22;33950;48.154;16.316;2022-11-18T16:30:47;6.90;99.90
48162;DHT22;33950;48.154;16.316;2022-11-18T16:33:51;6.70;99.90
48162;DHT22;33950;48.154;16.316;2022-11-18T16:36:38;6.50;99.90
48162;DHT22;33950;48.154;16.316;2022-11-18T16:39:26;6.60;99.90
48162;DHT22;33950;48.154;16.316;2022-11-18T16:42:14;6.60;99.90
48162;DHT22;33950;48.154;16.316;2022-11-18T16:45:00;6.50;99.90
48162;DHT22;33950;48.154;16.316;2022-11-18T16:47:46;6.40;99.90
48162;DHT22;33950;48.154;16.316;2022-11-18T16:50:32;6.20;99.90
48162;DHT22;33950;48.154;16.316;2022-11-18T16:53:18;6.20;99.90
48162;DHT22;33950;48.154;16.316;2022-11-18T16:56:04;6.10;99.90
48162;DHT22;33950;48.154;16.316;2022-11-18T16:58:55;6.10;99.90
48162;DHT22;33950;48.154;16.316;2022-11-18T17:01:42;6.10;99.90
48162;DHT22;33950;48.154;16.316;2022-11-18T17:04:29;6.20;99.90
48162;DHT22;33950;48.154;16.316;2022-11-18T17:07:15;6.20;99.90
48162;DHT22;33950;48.154;16.316;2022-11-18T17:10:03;6.10;99.90
48162;DHT22;33950;48.154;16.316;2022-11-18T17:12:49;6.10;99.90
48162;DHT22;33950;48.154;16.316;2022-11-18T17:15:36;6.10;99.90
48162;DHT22;33950;48.154;16.316;2022-11-18T17:18:22;6.00;99.90
48162;DHT22;33950;48.154;16.316;2022-11-18T17:21:10;5.90;99.90
48162;DHT22;33950;48.154;16.316;2022-11-18T17:23:57;6.00;99.90
48162;DHT22;33950;48.154;16.316;2022-11-18T17:26:43;5.90;99.90
48162;DHT22;33950;48.154;16.316;2022-11-18T17:29:30;5.90;99.90
48162;DHT22;33950;48.154;16.316;2022-11-18T17:32:19;6.00;99.90
48162;DHT22;33950;48.154;16.316;2022-11-18T17:35:06;6.10;99.90
48162;DHT22;33950;48.154;16.316;2022-11-18T17:37:52;6.20;99.90
48162;DHT22;33950;48.154;16.316;2022-11-18T17:40:38;6.20;99.90
48162;DHT22;33950;48.154;16.316;2022-11-18T17:43:25;6.20;99.90
48162;DHT22;33950;48.154;16.316;2022-11-18T17:46:12;6.10;99.90
48162;DHT22;33950;48.154;16.316;2022-11-18T17:49:00;6.00;99.90
48162;DHT22;33950;48.154;16.316;2022-11-18T17:51:47;5.90;99.90
48162;DHT22;33950;48.154;16.316;2022-11-18T17:54:35;5.90;99.90
48162;DHT22;33950;48.154;16.316;2022-11-18T17:57:21;5.90;99.90
48162;DHT22;33950;48.154;16.316;2022-11-18T18:00:09;5.80;99.90
48162;DHT22;33950;48.154;16.316;2022-11-18T18:02:55;5.70;99.90
48162;DHT22;33950;48.154;16.316;2022-11-18T18:05:42;5.60;99.90
48162;DHT22;33950;48.154;16.316;2022-11-18T18:08:29;5.60;99.90
48162;DHT22;33950;48.154;16.316;2022-11-18T18:11:16;5.50;99.90